Time;durP1;ratioP1;P1;durP2;ratioP2;P2;SDS_P1;SDS_P2;PMS_P1;PMS_P2;Temp;Humidity;BMP_temperature;BMP_pressure;BME280_temperature;BME280_humidity;BME280_pressure;Samples;Min_cycle;Max_cycle;Signal;HPM_P1;HPM_P2
2023/03/26 00:00:37;;;;;;;7.65;2.00;;;7.10;99.90;;;;;;4910888;29;20044;-76
2023/03/26 00:03:03;;;;;;;8.05;2.90;;;7.10;99.90;;;;;;4904461;29;20044;-75
2023/03/26 00:05:31;;;;;;;7.93;2.40;;;7.10;99.90;;;;;;4907057;29;20130;-76
2023/03/26 00:07:57;;;;;;;6.22;2.35;;;7.10;99.90;;;;;;4901453;29;20043;-75
2023/03/26 00:10:22;;;;;;;8.45;2.40;;;7.10;99.90;;;;;;4902951;29;20035;-75
2023/03/26 00:12:48;;;;;;;7.47;2.60;;;7.00;99.90;;;;;;4911285;29;20402;-76
2023/03/26 00:15:13;;;;;;;8.95;2.28;;;7.00;99.90;;;;;;4896076;29;20043;-75
2023/03/26 00:17:39;;;;;;;7.03;2.22;;;6.90;99.90;;;;;;4902969;29;20046;-75
2023/03/26 00:20:06;;;;;;;7.18;3.10;;;6.80;99.90;;;;;;4902805;29;20051;-75
2023/03/26 00:22:32;;;;;;;8.82;2.55;;;6.80;99.90;;;;;;4893941;29;20051;-75
2023/03/26 00:24:58;;;;;;;7.60;2.72;;;6.80;99.90;;;;;;4892347;29;20035;-75
2023/03/26 00:27:24;;;;;;;7.22;2.38;;;6.80;99.90;;;;;;4895062;29;20052;-75
2023/03/26 00:29:49;;;;;;;8.38;3.08;;;6.80;99.90;;;;;;4872967;29;20171;-75
2023/03/26 00:32:15;;;;;;;9.27;2.95;;;6.90;99.90;;;;;;4880371;29;20490;-75
2023/03/26 00:34:41;;;;;;;9.20;2.80;;;6.90;99.90;;;;;;4894877;29;20055;-75
2023/03/26 00:37:07;;;;;;;9.18;2.92;;;7.00;99.90;;;;;;4905713;29;20522;-75
2023/03/26 00:39:36;;;;;;;6.68;2.80;;;7.00;99.90;;;;;;4872999;29;20107;-75
2023/03/26 00:42:05;;;;;;;6.60;2.97;;;7.00;99.90;;;;;;4876421;29;20050;-76
2023/03/26 00:44:32;;;;;;;10.75;2.97;;;7.00;99.90;;;;;;4894775;29;20126;-75
2023/03/26 00:46:58;;;;;;;9.10;3.13;;;7.00;99.90;;;;;;4892682;29;20040;-75
2023/03/26 00:49:25;;;;;;;9.93;3.05;;;7.10;99.90;;;;;;4888025;29;20380;-75
2023/03/26 00:51:51;;;;;;;8.88;3.03;;;7.10;99.90;;;;;;4881544;29;20048;-75
2023/03/26 00:54:17;;;;;;;8.55;3.17;;;7.00;99.90;;;;;;4895623;29;20071;-75
2023/03/26 00:56:43;;;;;;;9.15;3.10;;;7.10;99.90;;;;;;4902377;29;20118;-75
2023/03/26 00:59:09;;;;;;;10.30;3.03;;;7.10;99.90;;;;;;4917999;29;20054;-75
2023/03/26 01:01:36;;;;;;;10.38;3.47;;;7.00;99.90;;;;;;4892731;29;20391;-75
2023/03/26 01:04:29;;;;;;;9.98;3.47;;;7.00;99.90;;;;;;4882647;29;20064;-75
2023/03/26 01:06:59;;;;;;;8.77;3.13;;;7.00;99.90;;;;;;4881091;29;20111;-75
2023/03/26 01:09:32;;;;;;;6.55;2.65;;;7.00;99.90;;;;;;4893428;29;20055;-75
2023/03/26 01:12:00;;;;;;;5.53;2.67;;;7.00;99.90;;;;;;4899991;29;20044;-75
2023/03/26 01:14:27;;;;;;;8.43;3.15;;;7.10;99.90;;;;;;4894116;29;20490;-75
2023/03/26 01:16:56;;;;;;;7.90;2.92;;;7.10;99.90;;;;;;4899305;29;20044;-75
2023/03/26 01:19:38;;;;;;;8.07;2.95;;;7.10;99.90;;;;;;4881611;29;20044;-75
2023/03/26 01:22:09;;;;;;;10.77;3.50;;;7.10;99.90;;;;;;4875806;29;20040;-75
2023/03/26 01:24:36;;;;;;;9.55;3.25;;;7.10;99.90;;;;;;4890866;29;20044;-75
2023/03/26 01:27:03;;;;;;;8.30;3.65;;;7.10;99.90;;;;;;4900931;29;20036;-75
2023/03/26 01:29:40;;;;;;;10.32;3.60;;;7.10;99.90;;;;;;4901728;29;20131;-75
2023/03/26 01:32:29;;;;;;;7.45;3.28;;;7.00;99.90;;;;;;4887194;29;20513;-75
2023/03/26 01:35:17;;;;;;;7.15;2.92;;;7.10;99.90;;;;;;4883262;29;20119;-75
2023/03/26 01:38:10;;;;;;;6.93;3.03;;;7.00;99.90;;;;;;4879909;29;20075;-75
2023/03/26 01:40:45;;;;;;;10.07;3.58;;;7.00;99.90;;;;;;4880695;29;20052;-75
2023/03/26 01:43:29;;;;;;;7.30;3.08;;;6.90;99.90;;;;;;4889918;29;20454;-75
2023/03/26 01:45:59;;;;;;;9.32;3.22;;;6.80;99.90;;;;;;4890712;29;20055;-75
2023/03/26 01:48:36;;;;;;;8.43;3.25;;;6.80;99.90;;;;;;4905336;29;20558;-75
2023/03/26 01:51:03;;;;;;;8.90;3.22;;;6.70;99.90;;;;;;4912615;29;20395;-75
2023/03/26 01:53:30;;;;;;;9.10;2.90;;;6.70;99.90;;;;;;4909518;29;20443;-75
2023/03/26 01:56:11;;;;;;;7.07;2.92;;;6.60;99.90;;;;;;4892214;29;20043;-75
2023/03/26 01:59:01;;;;;;;6.22;2.95;;;6.60;99.90;;;;;;4881177;29;20534;-75
2023/03/26 02:01:35;;;;;;;6.88;2.80;;;6.50;99.90;;;;;;4890534;29;20043;-75
2023/03/26 02:04:14;;;;;;;8.75;3.20;;;6.40;99.90;;;;;;4909272;29;20044;-75
2023/03/26 02:06:45;;;;;;;8.65;3.63;;;6.40;99.90;;;;;;4901529;29;20491;-75
2023/03/26 02:09:15;;;;;;;8.60;3.10;;;6.30;99.90;;;;;;4906107;29;20076;-76
2023/03/26 02:11:42;;;;;;;6.90;3.03;;;6.30;99.90;;;;;;4883954;29;20102;-75
2023/03/26 02:14:09;;;;;;;11.77;3.78;;;6.30;99.90;;;;;;4893484;29;20047;-75
2023/03/26 02:16:34;;;;;;;9.45;3.83;;;6.20;99.90;;;;;;4900705;29;20040;-75
2023/03/26 02:19:00;;;;;;;10.27;3.90;;;6.20;99.90;;;;;;4897598;29;20513;-75
2023/03/26 02:21:32;;;;;;;9.82;3.75;;;6.20;99.90;;;;;;4876014;29;20044;-75
2023/03/26 02:24:04;;;;;;;9.82;3.55;;;6.20;99.90;;;;;;4914196;29;20047;-75
2023/03/26 02:26:32;;;;;;;9.63;3.40;;;6.20;99.90;;;;;;4912225;29;20123;-75
2023/03/26 02:29:00;;;;;;;8.50;3.38;;;6.20;99.90;;;;;;4907927;29;20056;-75
2023/03/26 02:31:26;;;;;;;10.20;3.92;;;6.20;99.90;;;;;;4914668;29;20044;-75
2023/03/26 02:33:54;;;;;;;14.15;4.03;;;6.20;99.90;;;;;;4899243;29;20060;-75
2023/03/26 02:36:23;;;;;;;8.25;3.80;;;6.20;99.90;;;;;;4874697;29;20118;-75
2023/03/26 02:38:49;;;;;;;9.43;3.85;;;6.30;99.90;;;;;;4890317;29;20381;-75
2023/03/26 02:41:15;;;;;;;8.25;3.55;;;6.30;99.90;;;;;;4901089;29;20500;-75
2023/03/26 02:43:40;;;;;;;7.85;4.00;;;6.30;99.90;;;;;;4901173;29;20384;-75
2023/03/26 02:46:09;;;;;;;11.05;3.72;;;6.30;99.90;;;;;;4889886;29;20046;-75
2023/03/26 02:48:35;;;;;;;7.50;4.00;;;6.40;99.90;;;;;;4898229;29;20513;-75
2023/03/26 02:51:01;;;;;;;10.40;4.22;;;6.40;99.90;;;;;;4898754;29;20044;-75
2023/03/26 02:53:29;;;;;;;10.65;4.47;;;6.40;99.90;;;;;;4905918;29;20506;-74
2023/03/26 02:55:56;;;;;;;7.30;4.03;;;6.40;99.90;;;;;;4892973;29;20180;-75
2023/03/26 02:58:24;;;;;;;8.73;3.70;;;6.40;99.90;;;;;;4897719;29;20036;-75
2023/03/26 03:00:53;;;;;;;8.13;3.75;;;6.40;99.90;;;;;;4899315;29;20132;-75
2023/03/26 03:03:23;;;;;;;11.57;4.05;;;6.40;99.90;;;;;;4908997;29;20455;-75
2023/03/26 03:05:53;;;;;;;14.02;4.13;;;6.30;99.90;;;;;;4901344;29;20059;-75
2023/03/26 03:08:20;;;;;;;5.85;3.35;;;6.30;99.90;;;;;;4900429;29;20044;-75
2023/03/26 03:10:59;;;;;;;9.05;4.05;;;6.30;99.90;;;;;;4907664;29;20083;-75
2023/03/26 03:13:26;;;;;;;13.48;4.63;;;6.20;99.90;;;;;;4901785;29;20063;-75
2023/03/26 03:15:52;;;;;;;10.88;4.45;;;6.20;99.90;;;;;;4884452;29;20160;-75
2023/03/26 03:18:17;;;;;;;9.48;4.22;;;6.20;99.90;;;;;;4899682;29;20494;-75
2023/03/26 03:20:43;;;;;;;11.05;4.32;;;6.20;99.90;;;;;;4908158;29;20044;-74
2023/03/26 03:23:09;;;;;;;9.68;4.25;;;6.10;99.90;;;;;;4897773;29;20059;-75
2023/03/26 03:25:37;;;;;;;7.40;3.17;;;6.00;99.90;;;;;;4911042;29;20047;-75
2023/03/26 03:28:03;;;;;;;8.50;3.28;;;5.90;99.90;;;;;;4915965;29;20048;-74
2023/03/26 03:30:29;;;;;;;8.73;3.20;;;5.80;99.90;;;;;;4915952;29;20040;-75
2023/03/26 03:32:57;;;;;;;8.68;3.75;;;5.60;99.90;;;;;;4891381;29;20039;-75
2023/03/26 03:35:23;;;;;;;9.73;3.83;;;5.60;99.90;;;;;;4913429;29;20043;-75
2023/03/26 03:37:49;;;;;;;8.63;4.20;;;5.50;99.90;;;;;;4910521;29;20046;-74
2023/03/26 03:40:15;;;;;;;9.73;4.10;;;5.40;99.90;;;;;;4907448;29;20040;-75
2023/03/26 03:42:41;;;;;;;10.20;4.10;;;5.30;99.90;;;;;;4900977;29;20631;-75
2023/03/26 03:45:07;;;;;;;5.90;3.53;;;5.30;99.90;;;;;;4897114;29;20127;-75
2023/03/26 03:47:32;;;;;;;7.53;4.15;;;5.20;99.90;;;;;;4881594;29;20507;-74
2023/03/26 03:49:59;;;;;;;9.13;4.43;;;5.20;99.90;;;;;;4901843;29;20047;-75
2023/03/26 03:52:25;;;;;;;9.70;4.80;;;5.20;99.90;;;;;;4904991;29;20593;-74
2023/03/26 03:54:51;;;;;;;11.23;5.43;;;5.20;99.90;;;;;;4899005;29;20527;-74
2023/03/26 03:57:17;;;;;;;10.32;5.63;;;5.20;99.90;;;;;;4881511;29;20036;-75
2023/03/26 03:59:43;;;;;;;10.82;5.15;;;5.10;99.90;;;;;;4877590;29;20478;-75
2023/03/26 04:02:09;;;;;;;12.68;5.72;;;5.20;99.90;;;;;;4885731;29;20067;-75
2023/03/26 04:04:36;;;;;;;11.63;5.45;;;5.20;99.90;;;;;;4912785;29;20054;-74
2023/03/26 04:07:03;;;;;;;11.88;5.80;;;5.10;99.90;;;;;;4910934;29;20043;-75
2023/03/26 04:09:29;;;;;;;10.27;5.47;;;5.10;99.90;;;;;;4890055;29;20454;-74
2023/03/26 04:11:54;;;;;;;7.82;5.07;;;5.20;99.90;;;;;;4910553;29;20048;-74
2023/03/26 04:14:20;;;;;;;7.78;4.10;;;5.20;99.90;;;;;;4918936;29;20447;-74
2023/03/26 04:16:47;;;;;;;6.70;3.85;;;5.20;99.90;;;;;;4910622;29;20088;-74
2023/03/26 04:19:13;;;;;;;9.85;4.32;;;5.30;99.90;;;;;;4889265;29;20051;-75
2023/03/26 04:21:41;;;;;;;9.35;5.40;;;5.30;99.90;;;;;;4907147;29;20044;-75
2023/03/26 04:24:08;;;;;;;12.73;6.00;;;5.40;99.90;;;;;;4884325;29;20044;-75
2023/03/26 04:26:34;;;;;;;12.15;6.20;;;5.40;99.90;;;;;;4883997;29;20040;-75
2023/03/26 04:29:02;;;;;;;9.75;6.03;;;5.40;99.90;;;;;;4890862;29;20570;-75
2023/03/26 04:31:28;;;;;;;11.38;5.78;;;5.50;99.90;;;;;;4893879;29;20562;-75
2023/03/26 04:34:12;;;;;;;16.55;6.00;;;5.50;99.90;;;;;;4951546;23;20067;-77
2023/03/26 04:36:41;;;;;;;12.98;5.75;;;5.50;99.90;;;;;;4902085;29;20048;-77
2023/03/26 04:39:11;;;;;;;13.55;6.13;;;5.60;99.90;;;;;;4893550;29;20043;-77
2023/03/26 04:41:37;;;;;;;16.45;6.78;;;5.60;99.90;;;;;;4894856;29;20036;-77
2023/03/26 04:44:03;;;;;;;13.25;6.22;;;5.70;99.90;;;;;;4900769;29;20047;-77
2023/03/26 04:46:32;;;;;;;9.55;5.45;;;5.70;99.90;;;;;;4902610;29;20043;-77
2023/03/26 04:48:59;;;;;;;13.95;5.60;;;5.70;99.90;;;;;;4916652;29;20031;-77
2023/03/26 04:51:33;;;;;;;11.10;6.20;;;5.70;99.90;;;;;;4903916;29;20494;-77
2023/03/26 04:54:02;;;;;;;11.35;6.07;;;5.80;99.90;;;;;;4919766;29;20383;-77
2023/03/26 04:56:39;;;;;;;12.75;6.07;;;5.80;99.90;;;;;;4921288;29;20039;-77
2023/03/26 04:59:14;;;;;;;11.98;6.00;;;5.80;99.90;;;;;;4900554;29;20044;-78
2023/03/26 05:01:41;;;;;;;19.42;6.93;;;5.90;99.90;;;;;;4898240;29;20048;-77
2023/03/26 05:04:10;;;;;;;14.30;6.28;;;5.90;99.90;;;;;;4884017;29;20399;-77
2023/03/26 05:06:37;;;;;;;10.35;5.82;;;5.90;99.90;;;;;;4898010;29;20043;-77
2023/03/26 05:09:03;;;;;;;13.35;6.72;;;5.90;99.90;;;;;;4884755;29;20123;-77
2023/03/26 05:11:29;;;;;;;12.77;5.90;;;5.90;99.90;;;;;;4902364;29;20135;-77
2023/03/26 05:13:58;;;;;;;15.85;6.32;;;5.90;99.90;;;;;;4915550;29;20194;-77
2023/03/26 05:16:25;;;;;;;11.77;5.55;;;5.90;99.90;;;;;;4908762;29;20039;-77
2023/03/26 05:18:52;;;;;;;10.02;5.72;;;6.10;99.90;;;;;;4920334;29;20035;-77
2023/03/26 05:21:21;;;;;;;10.65;5.93;;;6.10;99.90;;;;;;4908559;29;20119;-77
2023/03/26 05:23:48;;;;;;;12.15;6.90;;;6.10;99.90;;;;;;4914508;29;20212;-77
2023/03/26 05:26:17;;;;;;;10.57;6.45;;;6.10;99.90;;;;;;4905703;29;20242;-77
2023/03/26 05:28:43;;;;;;;14.18;6.20;;;6.10;99.90;;;;;;4908164;29;20122;-77
2023/03/26 05:31:09;;;;;;;11.15;6.57;;;6.10;99.90;;;;;;4902583;29;20138;-77
2023/03/26 05:33:38;;;;;;;13.43;7.43;;;6.10;99.90;;;;;;4907463;29;20410;-77
2023/03/26 05:36:08;;;;;;;14.77;8.80;;;6.10;99.90;;;;;;4898068;29;20075;-77
2023/03/26 05:38:35;;;;;;;17.15;11.15;;;6.10;99.90;;;;;;4906262;29;20036;-78
2023/03/26 05:41:06;;;;;;;17.02;11.30;;;6.10;99.90;;;;;;4894418;29;20047;-77
2023/03/26 05:43:33;;;;;;;17.25;10.32;;;6.10;99.90;;;;;;4931534;29;20490;-77
2023/03/26 05:46:00;;;;;;;13.57;8.85;;;6.10;99.90;;;;;;4912101;29;20149;-77
2023/03/26 05:48:27;;;;;;;19.48;9.23;;;6.10;99.90;;;;;;4914661;29;20042;-77
2023/03/26 05:50:55;;;;;;;13.38;8.38;;;6.20;99.90;;;;;;4908443;29;20043;-77
2023/03/26 05:53:23;;;;;;;12.80;7.85;;;6.20;99.90;;;;;;4912457;29;20036;-77
2023/03/26 05:55:56;;;;;;;13.35;7.10;;;6.20;99.90;;;;;;4883848;29;20394;-76
2023/03/26 05:58:24;;;;;;;10.60;6.60;;;6.20;99.90;;;;;;4909455;29;20112;-76
2023/03/26 06:00:57;;;;;;;16.80;7.38;;;6.30;99.90;;;;;;4903111;29;20039;-77
2023/03/26 06:03:24;;;;;;;12.52;6.43;;;6.30;99.90;;;;;;4900459;29;20044;-76
2023/03/26 06:05:52;;;;;;;16.60;7.35;;;6.30;99.90;;;;;;4901772;29;20059;-77
2023/03/26 06:08:19;;;;;;;12.45;6.85;;;6.30;99.90;;;;;;4905002;29;20103;-77
2023/03/26 06:10:49;;;;;;;14.52;6.85;;;6.30;99.90;;;;;;4905904;29;20040;-77
2023/03/26 06:13:17;;;;;;;12.93;6.57;;;6.40;99.90;;;;;;4904328;29;20035;-77
2023/03/26 06:15:46;;;;;;;12.25;6.68;;;6.40;99.90;;;;;;4909183;29;20126;-77
2023/03/26 06:18:13;;;;;;;10.63;6.13;;;6.40;99.90;;;;;;4893158;29;20050;-77
2023/03/26 06:20:41;;;;;;;12.80;6.35;;;6.40;99.90;;;;;;4892786;29;20127;-77
2023/03/26 06:23:07;;;;;;;12.43;6.30;;;6.50;99.90;;;;;;4902473;29;20047;-75
2023/03/26 06:25:33;;;;;;;10.98;6.43;;;6.50;99.90;;;;;;4896855;29;20044;-76
2023/03/26 06:27:59;;;;;;;11.15;6.50;;;6.50;99.90;;;;;;4897541;29;20183;-77
2023/03/26 06:30:25;;;;;;;10.68;6.60;;;6.50;99.90;;;;;;4902912;29;20134;-77
2023/03/26 06:32:51;;;;;;;17.80;7.20;;;6.60;99.90;;;;;;4900208;29;20098;-77
2023/03/26 06:35:17;;;;;;;12.10;6.95;;;6.60;99.90;;;;;;4894645;29;20553;-77
2023/03/26 06:37:43;;;;;;;12.20;6.78;;;6.60;99.90;;;;;;4905108;29;20032;-76
2023/03/26 06:40:10;;;;;;;13.27;6.30;;;6.70;99.90;;;;;;4920735;29;20505;-78
2023/03/26 06:42:37;;;;;;;12.90;6.40;;;6.70;99.90;;;;;;4916660;29;20510;-78
2023/03/26 06:45:04;;;;;;;13.68;5.88;;;6.80;99.90;;;;;;4889881;29;20043;-78
2023/03/26 06:47:30;;;;;;;14.07;5.85;;;6.80;99.90;;;;;;4902957;29;20046;-77
2023/03/26 06:49:56;;;;;;;15.02;5.00;;;6.90;99.90;;;;;;4917857;29;20071;-77
2023/03/26 06:52:22;;;;;;;12.88;5.10;;;7.00;99.90;;;;;;4886164;29;20068;-77
2023/03/26 06:54:50;;;;;;;15.50;4.80;;;7.00;99.90;;;;;;4893148;29;20032;-77
2023/03/26 06:57:17;;;;;;;14.75;4.70;;;7.10;99.90;;;;;;4904126;29;20047;-77
2023/03/26 06:59:43;;;;;;;14.48;4.75;;;7.10;99.90;;;;;;4901167;29;20047;-77
2023/03/26 07:02:10;;;;;;;12.40;4.13;;;7.20;99.90;;;;;;4901151;29;20056;-77
2023/03/26 07:04:36;;;;;;;12.93;4.05;;;7.20;99.90;;;;;;4885592;29;20055;-77
2023/03/26 07:07:05;;;;;;;13.98;3.72;;;7.30;99.90;;;;;;4895682;29;20043;-77
2023/03/26 07:10:01;;;;;;;13.50;4.00;;;7.30;99.90;;;;;;4909893;29;20499;-77
2023/03/26 07:12:27;;;;;;;13.35;3.88;;;7.30;99.90;;;;;;4891649;29;20072;-78
2023/03/26 07:14:56;;;;;;;13.75;4.13;;;7.40;99.90;;;;;;4902050;29;20046;-77
2023/03/26 07:17:22;;;;;;;13.80;3.95;;;7.40;99.90;;;;;;4904113;29;20422;-78
2023/03/26 07:19:51;;;;;;;16.25;4.18;;;7.40;99.90;;;;;;4903879;29;20083;-78
2023/03/26 07:22:23;;;;;;;14.10;4.20;;;7.40;99.90;;;;;;4896530;29;20051;-78
2023/03/26 07:24:49;;;;;;;15.45;3.30;;;7.40;99.90;;;;;;4884753;29;20040;-78
2023/03/26 07:27:44;;;;;;;14.35;3.33;;;7.50;99.90;;;;;;4885093;29;20082;-78
2023/03/26 07:30:26;;;;;;;11.95;3.50;;;7.50;99.90;;;;;;4884959;29;20041;-78
2023/03/26 07:33:28;;;;;;;15.50;3.63;;;7.50;99.90;;;;;;4884668;29;20499;-78
2023/03/26 07:36:33;;;;;;;16.10;3.45;;;7.50;99.90;;;;;;4878082;29;20383;-78
2023/03/26 07:39:32;;;;;;;13.95;3.70;;;7.50;99.90;;;;;;4865965;29;20056;-77
2023/03/26 07:42:08;;;;;;;16.70;4.05;;;7.50;99.90;;;;;;4894932;29;20060;-77
2023/03/26 07:45:53;;;;;;;10.73;3.30;;;7.50;99.90;;;;;;4899117;29;20043;-77
2023/03/26 07:48:17;;;;;;;15.18;3.15;;;7.50;99.90;;;;;;4926575;29;20171;-77
2023/03/26 07:50:44;;;;;;;14.57;3.92;;;7.50;99.90;;;;;;4903269;29;20042;-77
2023/03/26 07:53:14;;;;;;;16.25;3.63;;;7.60;99.90;;;;;;4909370;29;20035;-77
2023/03/26 07:56:06;;;;;;;13.65;3.13;;;7.70;99.90;;;;;;4911713;29;20043;-77
2023/03/26 07:58:52;;;;;;;14.60;3.22;;;7.80;99.90;;;;;;4906665;29;20043;-77
2023/03/26 08:01:41;;;;;;;15.82;3.40;;;7.80;99.90;;;;;;4916380;29;20137;-79
2023/03/26 08:04:16;;;;;;;13.45;3.38;;;7.80;99.90;;;;;;4912039;29;20467;-78
2023/03/26 08:06:55;;;;;;;12.55;3.38;;;7.80;99.90;;;;;;4915946;29;20047;-78
2023/03/26 08:09:39;;;;;;;15.65;3.70;;;7.80;99.90;;;;;;4912890;29;20525;-76
2023/03/26 08:12:17;;;;;;;21.23;4.25;;;7.90;99.90;;;;;;4909267;29;20047;-76
2023/03/26 08:15:20;;;;;;;11.88;3.83;;;7.90;99.90;;;;;;4905783;29;20406;-76
2023/03/26 08:17:55;;;;;;;11.50;3.53;;;7.90;99.90;;;;;;4863936;29;20045;-76
2023/03/26 08:20:33;;;;;;;14.07;3.40;;;8.00;99.90;;;;;;4938648;29;20044;-77
2023/03/26 08:23:22;;;;;;;13.55;3.63;;;8.10;99.90;;;;;;4907535;29;20059;-76
2023/03/26 08:26:12;;;;;;;17.92;4.18;;;8.00;99.90;;;;;;4897223;29;20040;-76
2023/03/26 08:29:02;;;;;;;11.65;4.25;;;8.00;99.90;;;;;;4909247;29;20135;-76
2023/03/26 08:31:38;;;;;;;13.57;3.92;;;8.10;99.90;;;;;;4896217;29;20127;-76
2023/03/26 08:34:05;;;;;;;11.32;3.50;;;8.10;99.90;;;;;;4899073;29;20399;-76
2023/03/26 08:36:31;;;;;;;13.52;3.83;;;8.10;99.90;;;;;;4920196;29;20099;-76
2023/03/26 08:38:58;;;;;;;15.88;3.30;;;8.10;99.90;;;;;;4925060;29;20043;-76
2023/03/26 08:41:49;;;;;;;14.70;3.90;;;8.00;99.90;;;;;;4902167;29;20048;-76
2023/03/26 08:45:16;;;;;;;16.90;4.32;;;8.00;99.90;;;;;;4927898;29;20040;-76
2023/03/26 08:48:15;;;;;;;16.70;3.50;;;7.90;99.90;;;;;;4805820;29;20137;-76
2023/03/26 08:50:53;;;;;;;12.43;3.60;;;7.90;99.90;;;;;;4833345;29;20063;-76
2023/03/26 08:53:38;;;;;;;11.27;3.00;;;7.90;99.90;;;;;;4882176;29;20047;-77
2023/03/26 08:56:32;;;;;;;12.65;3.17;;;8.00;99.90;;;;;;4915976;29;20035;-76
2023/03/26 08:59:29;;;;;;;15.68;3.58;;;8.00;99.90;;;;;;4911324;29;20054;-77
2023/03/26 09:02:10;;;;;;;13.25;3.33;;;8.10;99.90;;;;;;4900273;29;20050;-76
2023/03/26 09:04:49;;;;;;;14.65;2.85;;;8.10;99.90;;;;;;4899213;29;20102;-78
2023/03/26 09:07:38;;;;;;;14.45;3.40;;;8.20;99.90;;;;;;4893371;29;20040;-79
2023/03/26 09:10:32;;;;;;;14.90;3.70;;;8.10;99.90;;;;;;4895506;29;20446;-77
2023/03/26 09:13:30;;;;;;;;;;;8.20;99.90;;;;;;4916308;29;20055;-75
2023/03/26 09:16:19;;;;;;;14.80;2.80;;;8.20;99.90;;;;;;4872452;29;19994;-78
2023/03/26 09:19:15;;;;;;;11.98;3.05;;;8.30;99.90;;;;;;4907266;29;20422;-76
2023/03/26 09:22:13;;;;;;;14.77;2.80;;;8.20;99.90;;;;;;4909192;29;20047;-75
2023/03/26 09:25:03;;;;;;;12.98;3.22;;;8.20;99.90;;;;;;4873886;29;20051;-75
2023/03/26 09:27:46;;;;;;;14.93;3.03;;;8.20;99.90;;;;;;4913832;29;20047;-75
2023/03/26 09:30:38;;;;;;;13.95;2.72;;;8.30;99.90;;;;;;4906210;29;20039;-75
2023/03/26 09:33:31;;;;;;;12.77;3.17;;;8.30;99.90;;;;;;4920699;29;20513;-75
2023/03/26 09:36:21;;;;;;;13.50;3.50;;;8.30;99.90;;;;;;4908324;29;20502;-78
2023/03/26 09:38:53;;;;;;;17.60;3.72;;;8.30;99.90;;;;;;4903630;29;20028;-75
2023/03/26 09:41:42;;;;;;;11.00;2.92;;;8.20;99.90;;;;;;4884432;29;20058;-75
2023/03/26 09:44:31;;;;;;;10.77;2.85;;;8.30;99.90;;;;;;4912185;29;20126;-75
2023/03/26 09:47:26;;;;;;;14.13;3.00;;;8.30;99.90;;;;;;4909159;29;20070;-75
2023/03/26 09:50:35;;;;;;;13.82;3.35;;;8.40;99.90;;;;;;4903702;29;20063;-75
2023/03/26 09:53:21;;;;;;;12.20;3.03;;;8.50;99.90;;;;;;4924115;29;20398;-75
2023/03/26 09:56:22;;;;;;;11.30;2.92;;;8.70;99.90;;;;;;4923555;29;20110;-75
2023/03/26 09:59:26;;;;;;;10.00;3.15;;;8.80;99.90;;;;;;4924816;29;20094;-76
2023/03/26 10:01:55;;;;;;;;;;;8.90;99.90;;;;;;4917471;29;20098;-77
2023/03/26 10:04:43;;;;;;;16.23;3.22;;;9.00;99.90;;;;;;4901893;29;19926;-75
2023/03/26 10:07:46;;;;;;;13.43;3.15;;;8.90;99.90;;;;;;4903356;29;20438;-76
2023/03/26 10:10:44;;;;;;;12.43;2.85;;;9.10;99.90;;;;;;4913738;29;20065;-77
2023/03/26 10:13:10;;;;;;;14.40;2.92;;;9.40;99.90;;;;;;4891330;29;20514;-76
2023/03/26 10:16:05;;;;;;;13.98;4.28;;;9.60;99.90;;;;;;4902371;29;20131;-75
2023/03/26 10:18:33;;;;;;;14.07;3.20;;;9.80;99.90;;;;;;4908340;29;20470;-75
2023/03/26 10:21:05;;;;;;;11.20;2.90;;;9.80;99.90;;;;;;4922328;29;20102;-75
2023/03/26 10:23:50;;;;;;;11.63;2.88;;;10.00;99.90;;;;;;4918034;29;20055;-76
2023/03/26 10:26:35;;;;;;;12.23;2.42;;;10.20;99.90;;;;;;4919481;29;20054;-76
2023/03/26 10:29:25;;;;;;;10.60;2.40;;;10.20;99.90;;;;;;4916744;29;20084;-76
2023/03/26 10:32:14;;;;;;;12.07;2.78;;;10.10;99.90;;;;;;4904706;29;20499;-78
2023/03/26 10:34:46;;;;;;;12.77;3.03;;;9.90;99.90;;;;;;4974722;23;20050;-75
2023/03/26 10:37:30;;;;;;;9.48;2.95;;;9.90;99.90;;;;;;4955069;28;20054;-74
2023/03/26 10:40:19;;;;;;;13.27;3.47;;;9.90;99.90;;;;;;4964334;28;20047;-75
2023/03/26 10:42:54;;;;;;;10.05;3.15;;;10.10;99.90;;;;;;4938408;28;20061;-74
2023/03/26 10:45:56;;;;;;;12.32;3.03;;;10.30;99.90;;;;;;4942374;28;20062;-74
2023/03/26 10:48:49;;;;;;;11.07;2.95;;;10.50;99.90;;;;;;4957286;28;20047;-74
2023/03/26 10:51:41;;;;;;;14.10;3.58;;;10.50;99.90;;;;;;4936047;29;20439;-75
2023/03/26 10:54:12;;;;;;;12.48;3.30;;;10.40;99.90;;;;;;4920409;29;20067;-72
2023/03/26 10:56:44;;;;;;;10.05;3.22;;;10.10;99.90;;;;;;4945017;28;20054;-72
2023/03/26 10:59:12;;;;;;;11.23;3.15;;;10.00;99.90;;;;;;4955244;28;20098;-72
2023/03/26 11:02:03;;;;;;;10.50;3.35;;;9.70;99.90;;;;;;4954986;29;20039;-72
2023/03/26 11:05:05;;;;;;;8.55;2.97;;;9.60;99.90;;;;;;4953204;28;20493;-72
2023/03/26 11:07:41;;;;;;;8.77;2.95;;;9.40;99.90;;;;;;4956268;28;20386;-72
2023/03/26 11:10:33;;;;;;;10.88;3.13;;;9.40;99.90;;;;;;4953854;28;20126;-72
2023/03/26 11:13:26;;;;;;;12.20;2.65;;;9.40;99.90;;;;;;4965618;28;20042;-72
2023/03/26 11:15:55;;;;;;;;;;;9.40;99.90;;;;;;4968749;28;20072;-71
2023/03/26 11:18:24;;;;;;;11.88;3.13;;;9.30;99.90;;;;;;4951426;28;20018;-72
2023/03/26 11:21:10;;;;;;;11.05;2.53;;;9.30;99.90;;;;;;4953595;28;20498;-74
2023/03/26 11:23:54;;;;;;;9.20;2.40;;;9.40;99.90;;;;;;4973862;28;20512;-72
2023/03/26 11:26:33;;;;;;;8.63;2.75;;;9.50;99.90;;;;;;4939748;28;20043;-72
2023/03/26 11:29:22;;;;;;;7.00;2.28;;;9.50;99.90;;;;;;4949336;28;20040;-73
2023/03/26 11:32:04;;;;;;;10.70;2.00;;;9.60;99.90;;;;;;4957669;28;20085;-73
2023/03/26 11:34:36;;;;;;;10.02;3.05;;;9.80;99.90;;;;;;4957570;28;20046;-73
2023/03/26 11:37:07;;;;;;;10.77;2.70;;;9.80;99.90;;;;;;4960035;28;20054;-74
2023/03/26 11:39:44;;;;;;;7.18;2.05;;;9.90;99.90;;;;;;4948155;28;20039;-73
2023/03/26 11:42:13;;;;;;;10.73;2.65;;;10.00;99.90;;;;;;4943315;28;20054;-74
2023/03/26 11:44:46;;;;;;;8.70;2.47;;;9.90;99.90;;;;;;4973714;28;20054;-74
2023/03/26 11:47:16;;;;;;;10.52;2.80;;;10.00;99.90;;;;;;4957977;28;20085;-73
2023/03/26 11:49:44;;;;;;;14.65;3.60;;;10.10;99.90;;;;;;4972478;28;20047;-73
2023/03/26 11:52:11;;;;;;;9.05;2.47;;;10.00;99.90;;;;;;4957558;28;20067;-74
2023/03/26 11:54:37;;;;;;;9.30;3.08;;;10.10;99.90;;;;;;4973453;28;20089;-73
2023/03/26 11:57:08;;;;;;;11.98;3.00;;;10.10;99.90;;;;;;4973432;28;20071;-74
2023/03/26 11:59:40;;;;;;;8.20;2.58;;;10.20;99.90;;;;;;4957498;28;20043;-74
2023/03/26 12:02:11;;;;;;;9.88;2.80;;;10.50;99.90;;;;;;4942596;28;20045;-72
2023/03/26 12:04:39;;;;;;;7.72;2.60;;;10.50;99.90;;;;;;4973446;28;20408;-74
2023/03/26 12:07:15;;;;;;;9.02;2.75;;;10.50;99.90;;;;;;4953691;28;20600;-74
2023/03/26 12:09:59;;;;;;;7.80;2.28;;;10.80;99.90;;;;;;4958804;28;20050;-73
2023/03/26 12:12:36;;;;;;;8.52;2.50;;;10.90;99.90;;;;;;4950076;28;20036;-73
2023/03/26 12:15:03;;;;;;;6.68;1.90;;;11.00;98.50;;;;;;4932760;28;20031;-73
2023/03/26 12:17:30;;;;;;;8.18;2.10;;;10.90;99.90;;;;;;4949066;28;20044;-73
2023/03/26 12:19:56;;;;;;;7.72;2.17;;;11.00;99.50;;;;;;4959731;28;20059;-74
2023/03/26 12:22:37;;;;;;;10.07;2.20;;;11.00;92.60;;;;;;4937517;29;20047;-73
2023/03/26 12:25:18;;;;;;;8.02;2.03;;;11.00;94.00;;;;;;4948868;28;20493;-74
2023/03/26 12:28:04;;;;;;;10.38;3.25;;;11.10;94.80;;;;;;4940969;28;20412;-75
2023/03/26 12:30:38;;;;;;;12.52;2.45;;;11.10;94.60;;;;;;4964797;28;20082;-74
2023/03/26 12:33:20;;;;;;;9.52;2.22;;;11.30;99.30;;;;;;4939762;28;20400;-72
2023/03/26 12:35:46;;;;;;;9.80;2.40;;;11.20;94.10;;;;;;4967003;28;20069;-72
2023/03/26 12:38:31;;;;;;;14.85;3.15;;;11.00;93.80;;;;;;4961366;28;20053;-72
2023/03/26 12:41:18;;;;;;;10.02;2.47;;;11.30;93.30;;;;;;4956439;28;20133;-72
2023/03/26 12:43:46;;;;;;;9.60;2.30;;;11.50;92.80;;;;;;4972769;28;20093;-72
2023/03/26 12:46:31;;;;;;;10.20;2.42;;;11.60;89.00;;;;;;4972487;28;20050;-72
2023/03/26 12:49:00;;;;;;;11.05;2.33;;;11.60;86.20;;;;;;4957344;28;20447;-72
2023/03/26 12:51:55;;;;;;;8.30;1.95;;;11.60;84.70;;;;;;4972020;28;20043;-72
2023/03/26 12:54:47;;;;;;;9.85;2.55;;;11.50;86.80;;;;;;4949230;28;20042;-72
2023/03/26 12:57:21;;;;;;;8.50;2.50;;;11.20;86.30;;;;;;4937171;28;20051;-72
2023/03/26 12:59:57;;;;;;;13.27;2.97;;;10.90;93.90;;;;;;4961584;28;20047;-72
2023/03/26 13:02:37;;;;;;;10.70;2.58;;;10.70;90.50;;;;;;4965107;28;20081;-72
2023/03/26 13:05:19;;;;;;;9.13;2.60;;;10.30;96.10;;;;;;4972276;28;20085;-72
2023/03/26 13:08:11;;;;;;;11.48;2.70;;;10.20;99.90;;;;;;4942261;28;20028;-72
2023/03/26 13:11:02;;;;;;;9.50;2.60;;;10.10;98.70;;;;;;4960604;28;20046;-73
2023/03/26 13:13:51;;;;;;;12.18;4.18;;;10.30;98.80;;;;;;4943654;28;20176;-73
2023/03/26 13:16:29;;;;;;;11.20;2.72;;;10.40;95.40;;;;;;4970085;28;20058;-73
2023/03/26 13:19:01;;;;;;;9.55;2.65;;;10.40;93.50;;;;;;4969999;28;20072;-73
2023/03/26 13:21:30;;;;;;;11.07;2.90;;;10.40;91.70;;;;;;4955691;28;20097;-73
2023/03/26 13:24:20;;;;;;;9.48;2.60;;;10.30;89.80;;;;;;4971799;28;20046;-73
2023/03/26 13:27:19;;;;;;;11.35;3.55;;;10.00;94.30;;;;;;4971942;28;20509;-73
2023/03/26 13:30:03;;;;;;;9.10;2.80;;;9.90;99.90;;;;;;4950829;28;20089;-74